sensor_id;sensor_type;location;lat;lon;timestamp;P1;durP1;ratioP1;P2;durP2;ratioP2
32505;SDS011;18955;51.224;8.482;2022-10-30T00:02:16;22.65;;;4.85;;
32505;SDS011;18955;51.224;8.482;2022-10-30T00:04:42;18.90;;;4.18;;
32505;SDS011;18955;51.224;8.482;2022-10-30T00:07:08;20.63;;;5.20;;
32505;SDS011;18955;51.224;8.482;2022-10-30T00:09:34;16.77;;;3.47;;
32505;SDS011;18955;51.224;8.482;2022-10-30T00:12:00;21.63;;;3.55;;
32505;SDS011;18955;51.224;8.482;2022-10-30T00:14:26;13.63;;;4.43;;
32505;SDS011;18955;51.224;8.482;2022-10-30T00:16:54;23.52;;;4.45;;
32505;SDS011;18955;51.224;8.482;2022-10-30T00:19:20;6.38;;;2.75;;
32505;SDS011;18955;51.224;8.482;2022-10-30T00:21:46;18.40;;;4.20;;
32505;SDS011;18955;51.224;8.482;2022-10-30T00:24:12;14.32;;;4.35;;
32505;SDS011;18955;51.224;8.482;2022-10-30T00:26:39;16.98;;;4.43;;
32505;SDS011;18955;51.224;8.482;2022-10-30T00:29:05;17.75;;;4.53;;
32505;SDS011;18955;51.224;8.482;2022-10-30T00:31:31;10.32;;;4.40;;
32505;SDS011;18955;51.224;8.482;2022-10-30T00:33:57;21.70;;;5.38;;
32505;SDS011;18955;51.224;8.482;2022-10-30T00:36:23;20.38;;;4.35;;
32505;SDS011;18955;51.224;8.482;2022-10-30T00:38:50;18.17;;;4.15;;
32505;SDS011;18955;51.224;8.482;2022-10-30T00:41:21;17.30;;;5.10;;
32505;SDS011;18955;51.224;8.482;2022-10-30T00:43:48;16.73;;;4.20;;
32505;SDS011;18955;51.224;8.482;2022-10-30T00:48:47;20.33;;;4.65;;
32505;SDS011;18955;51.224;8.482;2022-10-30T00:51:17;16.55;;;3.92;;
32505;SDS011;18955;51.224;8.482;2022-10-30T00:53:44;10.55;;;4.07;;
32505;SDS011;18955;51.224;8.482;2022-10-30T00:56:12;21.23;;;3.85;;
32505;SDS011;18955;51.224;8.482;2022-10-30T00:58:43;18.05;;;5.15;;
32505;SDS011;18955;51.224;8.482;2022-10-30T01:01:17;22.52;;;4.80;;
32505;SDS011;18955;51.224;8.482;2022-10-30T01:03:46;20.48;;;4.68;;
32505;SDS011;18955;51.224;8.482;2022-10-30T01:06:16;18.25;;;4.45;;
32505;SDS011;18955;51.224;8.482;2022-10-30T01:08:43;16.67;;;4.05;;
32505;SDS011;18955;51.224;8.482;2022-10-30T01:11:10;25.63;;;5.53;;
32505;SDS011;18955;51.224;8.482;2022-10-30T01:13:37;21.63;;;5.38;;
32505;SDS011;18955;51.224;8.482;2022-10-30T01:21:55;17.42;;;4.40;;
32505;SDS011;18955;51.224;8.482;2022-10-30T01:35:26;24.25;;;4.70;;
32505;SDS011;18955;51.224;8.482;2022-10-30T01:38:22;21.50;;;4.65;;
32505;SDS011;18955;51.224;8.482;2022-10-30T01:40:58;20.75;;;4.32;;
32505;SDS011;18955;51.224;8.482;2022-10-30T01:43:25;25.20;;;4.20;;
32505;SDS011;18955;51.224;8.482;2022-10-30T01:52:25;24.10;;;4.90;;
32505;SDS011;18955;51.224;8.482;2022-10-30T02:00:42;16.35;;;4.05;;
32505;SDS011;18955;51.224;8.482;2022-10-30T02:03:12;19.92;;;3.75;;
32505;SDS011;18955;51.224;8.482;2022-10-30T02:05:49;24.27;;;4.40;;
32505;SDS011;18955;51.224;8.482;2022-10-30T02:08:18;21.60;;;3.60;;
32505;SDS011;18955;51.224;8.482;2022-10-30T02:10:46;19.80;;;3.80;;
32505;SDS011;18955;51.224;8.482;2022-10-30T02:13:14;21.92;;;4.22;;
32505;SDS011;18955;51.224;8.482;2022-10-30T02:15:41;19.98;;;3.88;;
32505;SDS011;18955;51.224;8.482;2022-10-30T02:18:09;19.17;;;4.38;;
32505;SDS011;18955;51.224;8.482;2022-10-30T02:20:38;25.98;;;5.63;;
32505;SDS011;18955;51.224;8.482;2022-10-30T02:23:05;27.70;;;4.88;;
32505;SDS011;18955;51.224;8.482;2022-10-30T02:25:33;22.20;;;4.30;;
32505;SDS011;18955;51.224;8.482;2022-10-30T02:28:00;19.00;;;4.45;;
32505;SDS011;18955;51.224;8.482;2022-10-30T02:30:29;21.83;;;3.80;;
32505;SDS011;18955;51.224;8.482;2022-10-30T02:32:55;21.60;;;3.30;;
32505;SDS011;18955;51.224;8.482;2022-10-30T02:35:21;28.20;;;4.60;;
32505;SDS011;18955;51.224;8.482;2022-10-30T02:37:49;22.33;;;4.30;;
32505;SDS011;18955;51.224;8.482;2022-10-30T02:40:15;20.25;;;3.35;;
32505;SDS011;18955;51.224;8.482;2022-10-30T02:42:41;18.85;;;3.95;;
32505;SDS011;18955;51.224;8.482;2022-10-30T02:45:08;19.65;;;3.55;;
32505;SDS011;18955;51.224;8.482;2022-10-30T02:47:34;15.32;;;4.10;;
32505;SDS011;18955;51.224;8.482;2022-10-30T02:50:00;16.25;;;3.88;;
32505;SDS011;18955;51.224;8.482;2022-10-30T02:52:27;23.05;;;4.05;;
32505;SDS011;18955;51.224;8.482;2022-10-30T02:54:53;13.15;;;3.75;;
32505;SDS011;18955;51.224;8.482;2022-10-30T02:57:19;12.93;;;4.07;;
32505;SDS011;18955;51.224;8.482;2022-10-30T02:59:45;16.92;;;4.25;;
32505;SDS011;18955;51.224;8.482;2022-10-30T03:02:11;23.48;;;3.95;;
32505;SDS011;18955;51.224;8.482;2022-10-30T03:04:38;12.38;;;4.03;;
32505;SDS011;18955;51.224;8.482;2022-10-30T03:07:04;27.60;;;4.07;;
32505;SDS011;18955;51.224;8.482;2022-10-30T03:09:30;18.20;;;4.20;;
32505;SDS011;18955;51.224;8.482;2022-10-30T03:11:56;19.73;;;4.07;;
32505;SDS011;18955;51.224;8.482;2022-10-30T03:14:23;14.98;;;3.63;;
32505;SDS011;18955;51.224;8.482;2022-10-30T03:16:49;13.77;;;4.60;;
32505;SDS011;18955;51.224;8.482;2022-10-30T03:19:17;21.35;;;4.57;;
32505;SDS011;18955;51.224;8.482;2022-10-30T03:21:44;19.65;;;3.65;;
32505;SDS011;18955;51.224;8.482;2022-10-30T03:24:12;25.77;;;4.45;;
32505;SDS011;18955;51.224;8.482;2022-10-30T03:26:39;21.13;;;4.25;;
32505;SDS011;18955;51.224;8.482;2022-10-30T03:29:07;19.70;;;4.28;;
32505;SDS011;18955;51.224;8.482;2022-10-30T03:31:33;20.35;;;4.40;;
32505;SDS011;18955;51.224;8.482;2022-10-30T03:34:15;14.60;;;4.63;;
32505;SDS011;18955;51.224;8.482;2022-10-30T03:36:42;23.48;;;4.55;;
32505;SDS011;18955;51.224;8.482;2022-10-30T03:39:08;16.40;;;4.68;;
32505;SDS011;18955;51.224;8.482;2022-10-30T03:41:35;25.02;;;4.45;;
32505;SDS011;18955;51.224;8.482;2022-10-30T03:44:01;18.25;;;3.17;;
32505;SDS011;18955;51.224;8.482;2022-10-30T03:46:27;11.18;;;3.45;;
32505;SDS011;18955;51.224;8.482;2022-10-30T03:49:06;16.92;;;4.28;;
32505;SDS011;18955;51.224;8.482;2022-10-30T03:51:32;19.23;;;4.25;;
32505;SDS011;18955;51.224;8.482;2022-10-30T03:53:58;15.85;;;3.83;;
32505;SDS011;18955;51.224;8.482;2022-10-30T03:56:25;13.63;;;3.80;;
32505;SDS011;18955;51.224;8.482;2022-10-30T03:58:55;24.88;;;4.28;;
32505;SDS011;18955;51.224;8.482;2022-10-30T04:01:23;16.38;;;4.35;;
32505;SDS011;18955;51.224;8.482;2022-10-30T04:03:55;13.00;;;4.00;;
32505;SDS011;18955;51.224;8.482;2022-10-30T04:06:22;16.70;;;4.18;;
32505;SDS011;18955;51.224;8.482;2022-10-30T04:08:49;23.42;;;4.40;;
32505;SDS011;18955;51.224;8.482;2022-10-30T04:13:42;17.58;;;3.67;;
32505;SDS011;18955;51.224;8.482;2022-10-30T04:16:08;15.85;;;2.80;;
32505;SDS011;18955;51.224;8.482;2022-10-30T04:18:35;20.55;;;4.22;;
32505;SDS011;18955;51.224;8.482;2022-10-30T04:21:01;29.20;;;5.07;;
32505;SDS011;18955;51.224;8.482;2022-10-30T04:23:27;12.90;;;3.95;;
32505;SDS011;18955;51.224;8.482;2022-10-30T04:25:54;28.98;;;5.78;;
32505;SDS011;18955;51.224;8.482;2022-10-30T04:28:21;22.33;;;4.68;;
32505;SDS011;18955;51.224;8.482;2022-10-30T04:30:47;10.60;;;4.60;;
32505;SDS011;18955;51.224;8.482;2022-10-30T04:33:16;18.60;;;4.20;;
32505;SDS011;18955;51.224;8.482;2022-10-30T04:35:42;22.48;;;4.10;;
32505;SDS011;18955;51.224;8.482;2022-10-30T04:38:13;23.17;;;4.40;;
32505;SDS011;18955;51.224;8.482;2022-10-30T04:40:42;13.85;;;4.35;;
32505;SDS011;18955;51.224;8.482;2022-10-30T04:43:10;20.25;;;4.30;;
32505;SDS011;18955;51.224;8.482;2022-10-30T04:45:38;18.50;;;4.30;;
32505;SDS011;18955;51.224;8.482;2022-10-30T04:48:06;20.30;;;4.32;;
32505;SDS011;18955;51.224;8.482;2022-10-30T04:50:35;18.35;;;3.72;;
32505;SDS011;18955;51.224;8.482;2022-10-30T04:53:04;24.85;;;5.05;;
32505;SDS011;18955;51.224;8.482;2022-10-30T04:55:32;24.55;;;4.82;;
32505;SDS011;18955;51.224;8.482;2022-10-30T04:57:59;13.57;;;4.10;;
32505;SDS011;18955;51.224;8.482;2022-10-30T05:00:30;16.10;;;4.15;;
32505;SDS011;18955;51.224;8.482;2022-10-30T05:03:04;17.08;;;4.85;;
32505;SDS011;18955;51.224;8.482;2022-10-30T05:05:31;15.75;;;4.90;;
32505;SDS011;18955;51.224;8.482;2022-10-30T05:07:57;14.27;;;3.97;;
32505;SDS011;18955;51.224;8.482;2022-10-30T05:10:23;17.35;;;4.68;;
32505;SDS011;18955;51.224;8.482;2022-10-30T05:12:51;21.98;;;4.43;;
32505;SDS011;18955;51.224;8.482;2022-10-30T05:15:19;17.52;;;5.22;;
32505;SDS011;18955;51.224;8.482;2022-10-30T05:17:49;15.38;;;3.65;;
32505;SDS011;18955;51.224;8.482;2022-10-30T05:20:19;24.95;;;4.60;;
32505;SDS011;18955;51.224;8.482;2022-10-30T05:25:19;20.48;;;4.20;;
32505;SDS011;18955;51.224;8.482;2022-10-30T05:28:03;13.30;;;4.00;;
32505;SDS011;18955;51.224;8.482;2022-10-30T05:30:46;18.25;;;4.43;;
32505;SDS011;18955;51.224;8.482;2022-10-30T05:33:30;19.38;;;4.32;;
32505;SDS011;18955;51.224;8.482;2022-10-30T05:35:56;18.58;;;4.50;;
32505;SDS011;18955;51.224;8.482;2022-10-30T05:38:22;15.38;;;4.20;;
32505;SDS011;18955;51.224;8.482;2022-10-30T05:40:50;19.55;;;4.90;;
32505;SDS011;18955;51.224;8.482;2022-10-30T05:43:16;17.65;;;4.68;;
32505;SDS011;18955;51.224;8.482;2022-10-30T05:45:42;15.23;;;4.10;;
32505;SDS011;18955;51.224;8.482;2022-10-30T05:48:08;9.13;;;3.30;;
32505;SDS011;18955;51.224;8.482;2022-10-30T05:50:41;16.92;;;4.60;;
32505;SDS011;18955;51.224;8.482;2022-10-30T05:53:18;14.52;;;4.43;;
32505;SDS011;18955;51.224;8.482;2022-10-30T05:55:44;19.38;;;4.43;;
32505;SDS011;18955;51.224;8.482;2022-10-30T05:58:19;19.63;;;4.38;;
32505;SDS011;18955;51.224;8.482;2022-10-30T06:00:46;11.07;;;3.88;;
32505;SDS011;18955;51.224;8.482;2022-10-30T06:03:18;17.38;;;4.90;;
32505;SDS011;18955;51.224;8.482;2022-10-30T06:05:45;16.60;;;4.13;;
32505;SDS011;18955;51.224;8.482;2022-10-30T06:08:13;11.80;;;4.05;;
32505;SDS011;18955;51.224;8.482;2022-10-30T06:10:43;10.45;;;4.22;;
32505;SDS011;18955;51.224;8.482;2022-10-30T06:13:21;20.20;;;4.28;;
32505;SDS011;18955;51.224;8.482;2022-10-30T06:15:56;17.00;;;4.38;;
32505;SDS011;18955;51.224;8.482;2022-10-30T06:18:24;12.02;;;5.10;;
32505;SDS011;18955;51.224;8.482;2022-10-30T06:20:56;10.95;;;4.20;;
32505;SDS011;18955;51.224;8.482;2022-10-30T06:23:35;15.45;;;4.45;;
32505;SDS011;18955;51.224;8.482;2022-10-30T06:26:06;17.35;;;4.43;;
32505;SDS011;18955;51.224;8.482;2022-10-30T06:28:41;17.98;;;5.60;;
32505;SDS011;18955;51.224;8.482;2022-10-30T06:31:08;17.70;;;4.30;;
32505;SDS011;18955;51.224;8.482;2022-10-30T06:33:35;27.10;;;5.03;;
32505;SDS011;18955;51.224;8.482;2022-10-30T06:36:01;17.85;;;4.55;;
32505;SDS011;18955;51.224;8.482;2022-10-30T06:38:28;26.77;;;4.95;;
32505;SDS011;18955;51.224;8.482;2022-10-30T06:40:54;23.00;;;5.18;;
32505;SDS011;18955;51.224;8.482;2022-10-30T06:43:41;12.88;;;3.88;;
32505;SDS011;18955;51.224;8.482;2022-10-30T06:46:25;15.32;;;4.60;;
32505;SDS011;18955;51.224;8.482;2022-10-30T06:48:51;10.02;;;3.63;;
32505;SDS011;18955;51.224;8.482;2022-10-30T06:51:18;19.63;;;4.55;;
32505;SDS011;18955;51.224;8.482;2022-10-30T06:53:45;20.10;;;4.70;;
32505;SDS011;18955;51.224;8.482;2022-10-30T06:56:50;16.85;;;4.50;;
32505;SDS011;18955;51.224;8.482;2022-10-30T06:59:44;14.85;;;4.40;;
32505;SDS011;18955;51.224;8.482;2022-10-30T07:02:33;25.17;;;6.20;;
32505;SDS011;18955;51.224;8.482;2022-10-30T07:05:04;13.63;;;4.00;;
32505;SDS011;18955;51.224;8.482;2022-10-30T07:07:31;21.50;;;5.00;;
32505;SDS011;18955;51.224;8.482;2022-10-30T07:09:58;14.60;;;3.95;;
32505;SDS011;18955;51.224;8.482;2022-10-30T07:12:54;17.70;;;4.55;;
32505;SDS011;18955;51.224;8.482;2022-10-30T07:15:37;13.70;;;4.57;;
32505;SDS011;18955;51.224;8.482;2022-10-30T07:18:16;17.40;;;4.53;;
32505;SDS011;18955;51.224;8.482;2022-10-30T07:20:43;28.83;;;5.30;;
32505;SDS011;18955;51.224;8.482;2022-10-30T07:23:09;21.05;;;5.10;;
32505;SDS011;18955;51.224;8.482;2022-10-30T07:25:36;16.80;;;4.50;;
32505;SDS011;18955;51.224;8.482;2022-10-30T07:28:07;14.77;;;4.15;;
32505;SDS011;18955;51.224;8.482;2022-10-30T07:30:51;24.77;;;5.72;;
32505;SDS011;18955;51.224;8.482;2022-10-30T07:33:43;18.83;;;4.93;;
32505;SDS011;18955;51.224;8.482;2022-10-30T07:36:33;17.38;;;4.82;;
32505;SDS011;18955;51.224;8.482;2022-10-30T07:39:17;12.52;;;3.97;;
32505;SDS011;18955;51.224;8.482;2022-10-30T07:41:55;16.80;;;4.40;;
32505;SDS011;18955;51.224;8.482;2022-10-30T07:44:40;16.10;;;4.53;;
32505;SDS011;18955;51.224;8.482;2022-10-30T07:47:32;21.50;;;4.88;;
32505;SDS011;18955;51.224;8.482;2022-10-30T07:50:12;22.73;;;6.00;;
32505;SDS011;18955;51.224;8.482;2022-10-30T07:52:38;16.13;;;4.90;;
32505;SDS011;18955;51.224;8.482;2022-10-30T07:55:05;27.63;;;4.78;;
32505;SDS011;18955;51.224;8.482;2022-10-30T07:57:47;17.85;;;4.72;;
32505;SDS011;18955;51.224;8.482;2022-10-30T08:00:32;17.95;;;4.50;;
32505;SDS011;18955;51.224;8.482;2022-10-30T08:03:07;19.15;;;4.93;;
32505;SDS011;18955;51.224;8.482;2022-10-30T08:05:58;21.60;;;4.70;;
32505;SDS011;18955;51.224;8.482;2022-10-30T08:08:33;23.15;;;5.50;;
32505;SDS011;18955;51.224;8.482;2022-10-30T08:11:08;18.08;;;4.85;;
32505;SDS011;18955;51.224;8.482;2022-10-30T08:16:01;13.05;;;4.35;;
32505;SDS011;18955;51.224;8.482;2022-10-30T08:18:27;15.50;;;4.35;;
32505;SDS011;18955;51.224;8.482;2022-10-30T08:20:53;18.25;;;4.80;;
32505;SDS011;18955;51.224;8.482;2022-10-30T08:23:20;14.90;;;5.00;;
32505;SDS011;18955;51.224;8.482;2022-10-30T08:25:46;12.68;;;4.25;;
32505;SDS011;18955;51.224;8.482;2022-10-30T08:28:13;22.08;;;5.65;;
32505;SDS011;18955;51.224;8.482;2022-10-30T08:30:41;21.10;;;5.63;;
32505;SDS011;18955;51.224;8.482;2022-10-30T08:33:11;22.42;;;5.43;;
32505;SDS011;18955;51.224;8.482;2022-10-30T08:35:56;19.98;;;5.32;;
32505;SDS011;18955;51.224;8.482;2022-10-30T08:38:25;14.63;;;5.07;;
32505;SDS011;18955;51.224;8.482;2022-10-30T08:41:24;16.17;;;5.10;;
32505;SDS011;18955;51.224;8.482;2022-10-30T08:43:52;19.00;;;5.32;;
32505;SDS011;18955;51.224;8.482;2022-10-30T08:46:18;20.77;;;5.32;;
32505;SDS011;18955;51.224;8.482;2022-10-30T08:48:44;13.88;;;5.45;;
32505;SDS011;18955;51.224;8.482;2022-10-30T08:51:11;19.60;;;5.90;;
32505;SDS011;18955;51.224;8.482;2022-10-30T08:53:42;14.45;;;5.13;;
32505;SDS011;18955;51.224;8.482;2022-10-30T08:56:12;18.02;;;5.78;;
32505;SDS011;18955;51.224;8.482;2022-10-30T08:58:50;16.58;;;5.60;;
32505;SDS011;18955;51.224;8.482;2022-10-30T09:01:17;18.83;;;5.65;;
32505;SDS011;18955;51.224;8.482;2022-10-30T09:04:02;15.27;;;5.82;;
32505;SDS011;18955;51.224;8.482;2022-10-30T09:06:47;24.58;;;6.47;;
32505;SDS011;18955;51.224;8.482;2022-10-30T09:09:29;17.45;;;6.30;;
32505;SDS011;18955;51.224;8.482;2022-10-30T09:11:58;21.88;;;6.00;;
32505;SDS011;18955;51.224;8.482;2022-10-30T09:14:25;23.27;;;6.32;;
32505;SDS011;18955;51.224;8.482;2022-10-30T09:16:52;23.85;;;5.47;;
32505;SDS011;18955;51.224;8.482;2022-10-30T09:19:20;20.20;;;6.05;;
32505;SDS011;18955;51.224;8.482;2022-10-30T09:21:48;18.98;;;5.65;;
32505;SDS011;18955;51.224;8.482;2022-10-30T09:24:15;22.35;;;6.38;;
32505;SDS011;18955;51.224;8.482;2022-10-30T09:26:41;21.40;;;4.00;;
32505;SDS011;18955;51.224;8.482;2022-10-30T09:29:26;24.42;;;5.25;;
32505;SDS011;18955;51.224;8.482;2022-10-30T09:32:12;21.90;;;6.05;;
32505;SDS011;18955;51.224;8.482;2022-10-30T09:34:53;29.45;;;5.45;;
32505;SDS011;18955;51.224;8.482;2022-10-30T09:37:25;26.98;;;5.50;;
32505;SDS011;18955;51.224;8.482;2022-10-30T09:39:57;24.40;;;6.00;;
32505;SDS011;18955;51.224;8.482;2022-10-30T09:47:43;27.45;;;5.00;;
32505;SDS011;18955;51.224;8.482;2022-10-30T09:56:48;37.03;;;5.28;;
32505;SDS011;18955;51.224;8.482;2022-10-30T10:04:43;24.80;;;6.00;;
32505;SDS011;18955;51.224;8.482;2022-10-30T10:07:35;19.63;;;4.18;;
32505;SDS011;18955;51.224;8.482;2022-10-30T10:10:48;22.67;;;4.53;;
32505;SDS011;18955;51.224;8.482;2022-10-30T10:13:24;14.43;;;4.18;;
32505;SDS011;18955;51.224;8.482;2022-10-30T10:18:37;17.90;;;4.22;;
32505;SDS011;18955;51.224;8.482;2022-10-30T10:21:12;19.50;;;2.80;;
32505;SDS011;18955;51.224;8.482;2022-10-30T10:24:01;14.65;;;3.70;;
32505;SDS011;18955;51.224;8.482;2022-10-30T10:46:18;14.75;;;3.55;;
32505;SDS011;18955;51.224;8.482;2022-10-30T10:51:57;21.20;;;3.35;;
32505;SDS011;18955;51.224;8.482;2022-10-30T10:57:03;15.25;;;3.60;;
32505;SDS011;18955;51.224;8.482;2022-10-30T10:59:36;16.25;;;4.70;;
32505;SDS011;18955;51.224;8.482;2022-10-30T11:04:37;24.92;;;3.28;;
32505;SDS011;18955;51.224;8.482;2022-10-30T11:07:21;20.92;;;3.85;;
32505;SDS011;18955;51.224;8.482;2022-10-30T11:09:56;18.52;;;3.30;;
32505;SDS011;18955;51.224;8.482;2022-10-30T11:12:26;15.23;;;3.30;;
32505;SDS011;18955;51.224;8.482;2022-10-30T11:15:00;23.30;;;3.35;;
32505;SDS011;18955;51.224;8.482;2022-10-30T11:20:50;17.65;;;3.03;;
32505;SDS011;18955;51.224;8.482;2022-10-30T11:23:36;16.48;;;3.30;;
32505;SDS011;18955;51.224;8.482;2022-10-30T11:26:50;17.42;;;4.00;;
32505;SDS011;18955;51.224;8.482;2022-10-30T11:28:57;14.75;;;2.95;;
32505;SDS011;18955;51.224;8.482;2022-10-30T11:31:43;20.63;;;3.80;;
32505;SDS011;18955;51.224;8.482;2022-10-30T11:36:45;13.05;;;3.42;;
32505;SDS011;18955;51.224;8.482;2022-10-30T11:41:56;16.98;;;3.38;;
32505;SDS011;18955;51.224;8.482;2022-10-30T11:46:55;19.05;;;3.38;;
32505;SDS011;18955;51.224;8.482;2022-10-30T11:49:33;17.08;;;3.58;;
32505;SDS011;18955;51.224;8.482;2022-10-30T11:52:06;26.88;;;3.83;;
32505;SDS011;18955;51.224;8.482;2022-10-30T11:54:34;12.43;;;3.30;;
32505;SDS011;18955;51.224;8.482;2022-10-30T11:57:04;20.23;;;3.17;;
32505;SDS011;18955;51.224;8.482;2022-10-30T11:59:45;18.63;;;3.10;;
32505;SDS011;18955;51.224;8.482;2022-10-30T12:04:54;14.38;;;3.58;;
32505;SDS011;18955;51.224;8.482;2022-10-30T12:07:29;20.75;;;3.80;;
32505;SDS011;18955;51.224;8.482;2022-10-30T12:09:59;17.33;;;3.10;;
32505;SDS011;18955;51.224;8.482;2022-10-30T12:14:58;23.33;;;3.80;;
32505;SDS011;18955;51.224;8.482;2022-10-30T12:20:19;17.73;;;3.47;;
32505;SDS011;18955;51.224;8.482;2022-10-30T12:22:46;22.48;;;4.30;;
32505;SDS011;18955;51.224;8.482;2022-10-30T12:27:57;16.48;;;4.65;;
32505;SDS011;18955;51.224;8.482;2022-10-30T12:30:25;16.75;;;3.40;;
32505;SDS011;18955;51.224;8.482;2022-10-30T12:32:56;16.38;;;2.90;;
32505;SDS011;18955;51.224;8.482;2022-10-30T12:35:47;14.10;;;3.13;;
32505;SDS011;18955;51.224;8.482;2022-10-30T12:43:33;20.33;;;3.70;;
32505;SDS011;18955;51.224;8.482;2022-10-30T12:46:12;19.58;;;4.00;;
32505;SDS011;18955;51.224;8.482;2022-10-30T12:49:08;20.25;;;3.30;;
32505;SDS011;18955;51.224;8.482;2022-10-30T12:57:13;18.23;;;3.33;;
32505;SDS011;18955;51.224;8.482;2022-10-30T13:07:59;15.63;;;3.60;;
32505;SDS011;18955;51.224;8.482;2022-10-30T13:10:49;18.95;;;3.58;;
32505;SDS011;18955;51.224;8.482;2022-10-30T13:13:24;28.75;;;3.83;;
32505;SDS011;18955;51.224;8.482;2022-10-30T13:15:56;15.23;;;3.60;;
32505;SDS011;18955;51.224;8.482;2022-10-30T13:18:24;33.65;;;3.72;;
32505;SDS011;18955;51.224;8.482;2022-10-30T13:21:03;16.67;;;3.13;;
32505;SDS011;18955;51.224;8.482;2022-10-30T13:37:41;14.23;;;3.40;;
32505;SDS011;18955;51.224;8.482;2022-10-30T13:48:46;19.10;;;3.40;;
32505;SDS011;18955;51.224;8.482;2022-10-30T13:51:36;15.73;;;3.57;;
32505;SDS011;18955;51.224;8.482;2022-10-30T13:56:40;18.10;;;3.10;;
32505;SDS011;18955;51.224;8.482;2022-10-30T14:02:24;10.77;;;3.35;;
32505;SDS011;18955;51.224;8.482;2022-10-30T14:07:45;24.25;;;3.10;;
32505;SDS011;18955;51.224;8.482;2022-10-30T14:10:44;16.92;;;3.38;;
32505;SDS011;18955;51.224;8.482;2022-10-30T14:15:41;13.77;;;3.30;;
32505;SDS011;18955;51.224;8.482;2022-10-30T14:28:32;14.57;;;3.03;;
32505;SDS011;18955;51.224;8.482;2022-10-30T14:31:01;18.95;;;5.10;;
32505;SDS011;18955;51.224;8.482;2022-10-30T14:36:55;20.42;;;3.13;;
32505;SDS011;18955;51.224;8.482;2022-10-30T14:44:16;22.35;;;3.15;;
32505;SDS011;18955;51.224;8.482;2022-10-30T14:47:19;16.42;;;3.58;;
32505;SDS011;18955;51.224;8.482;2022-10-30T14:49:47;16.60;;;3.00;;
32505;SDS011;18955;51.224;8.482;2022-10-30T14:52:42;13.65;;;2.92;;
32505;SDS011;18955;51.224;8.482;2022-10-30T14:57:50;22.30;;;2.83;;
32505;SDS011;18955;51.224;8.482;2022-10-30T15:05:56;20.73;;;3.10;;
32505;SDS011;18955;51.224;8.482;2022-10-30T15:13:44;19.15;;;2.97;;
32505;SDS011;18955;51.224;8.482;2022-10-30T15:16:13;19.60;;;3.47;;
32505;SDS011;18955;51.224;8.482;2022-10-30T15:18:46;22.10;;;2.70;;
32505;SDS011;18955;51.224;8.482;2022-10-30T15:21:20;28.40;;;2.90;;
32505;SDS011;18955;51.224;8.482;2022-10-30T15:23:54;14.45;;;2.75;;
32505;SDS011;18955;51.224;8.482;2022-10-30T15:26:25;20.27;;;3.00;;
32505;SDS011;18955;51.224;8.482;2022-10-30T15:28:57;13.45;;;3.10;;
32505;SDS011;18955;51.224;8.482;2022-10-30T15:31:24;14.70;;;2.72;;
32505;SDS011;18955;51.224;8.482;2022-10-30T15:33:53;13.43;;;3.03;;
32505;SDS011;18955;51.224;8.482;2022-10-30T15:41:37;25.10;;;3.20;;
32505;SDS011;18955;51.224;8.482;2022-10-30T15:44:11;15.93;;;4.10;;
32505;SDS011;18955;51.224;8.482;2022-10-30T15:46:48;11.30;;;3.10;;
32505;SDS011;18955;51.224;8.482;2022-10-30T15:49:27;21.50;;;3.45;;
32505;SDS011;18955;51.224;8.482;2022-10-30T15:51:54;16.63;;;3.17;;
32505;SDS011;18955;51.224;8.482;2022-10-30T15:54:21;11.93;;;2.60;;
32505;SDS011;18955;51.224;8.482;2022-10-30T15:56:49;14.50;;;3.00;;
32505;SDS011;18955;51.224;8.482;2022-10-30T15:59:22;23.63;;;2.80;;
32505;SDS011;18955;51.224;8.482;2022-10-30T16:01:52;19.70;;;3.08;;
32505;SDS011;18955;51.224;8.482;2022-10-30T16:04:21;10.10;;;3.05;;
32505;SDS011;18955;51.224;8.482;2022-10-30T16:06:56;20.92;;;3.50;;
32505;SDS011;18955;51.224;8.482;2022-10-30T16:09:24;15.23;;;3.13;;
32505;SDS011;18955;51.224;8.482;2022-10-30T16:11:53;8.98;;;2.75;;
32505;SDS011;18955;51.224;8.482;2022-10-30T16:14:23;10.88;;;2.90;;
32505;SDS011;18955;51.224;8.482;2022-10-30T16:16:51;20.02;;;2.90;;
32505;SDS011;18955;51.224;8.482;2022-10-30T16:21:56;16.73;;;3.15;;
32505;SDS011;18955;51.224;8.482;2022-10-30T16:24:28;13.00;;;2.58;;
32505;SDS011;18955;51.224;8.482;2022-10-30T16:27:13;12.63;;;2.75;;
32505;SDS011;18955;51.224;8.482;2022-10-30T16:29:41;12.30;;;2.60;;
32505;SDS011;18955;51.224;8.482;2022-10-30T16:32:12;13.57;;;2.85;;
32505;SDS011;18955;51.224;8.482;2022-10-30T16:34:40;11.70;;;3.10;;
32505;SDS011;18955;51.224;8.482;2022-10-30T16:37:10;20.95;;;3.22;;
32505;SDS011;18955;51.224;8.482;2022-10-30T16:39:46;10.70;;;2.55;;
32505;SDS011;18955;51.224;8.482;2022-10-30T16:42:21;16.98;;;3.10;;
32505;SDS011;18955;51.224;8.482;2022-10-30T16:44:49;13.73;;;3.90;;
32505;SDS011;18955;51.224;8.482;2022-10-30T16:49:48;10.82;;;3.55;;
32505;SDS011;18955;51.224;8.482;2022-10-30T16:52:22;14.82;;;3.45;;
32505;SDS011;18955;51.224;8.482;2022-10-30T16:54:58;20.08;;;3.30;;
32505;SDS011;18955;51.224;8.482;2022-10-30T16:57:29;15.27;;;3.25;;
32505;SDS011;18955;51.224;8.482;2022-10-30T16:59:58;16.42;;;2.88;;
32505;SDS011;18955;51.224;8.482;2022-10-30T17:02:27;7.45;;;2.70;;
32505;SDS011;18955;51.224;8.482;2022-10-30T17:05:09;18.58;;;3.50;;
32505;SDS011;18955;51.224;8.482;2022-10-30T17:18:48;13.55;;;3.35;;
32505;SDS011;18955;51.224;8.482;2022-10-30T17:21:16;17.08;;;3.67;;
32505;SDS011;18955;51.224;8.482;2022-10-30T17:23:45;18.27;;;3.35;;
32505;SDS011;18955;51.224;8.482;2022-10-30T17:26:14;14.32;;;3.65;;
32505;SDS011;18955;51.224;8.482;2022-10-30T17:28:41;20.45;;;3.65;;
32505;SDS011;18955;51.224;8.482;2022-10-30T17:33:43;23.60;;;3.20;;
32505;SDS011;18955;51.224;8.482;2022-10-30T17:36:29;18.83;;;3.53;;
32505;SDS011;18955;51.224;8.482;2022-10-30T17:38:55;9.38;;;2.25;;
32505;SDS011;18955;51.224;8.482;2022-10-30T17:41:21;19.48;;;3.35;;
32505;SDS011;18955;51.224;8.482;2022-10-30T17:43:51;20.55;;;3.72;;
32505;SDS011;18955;51.224;8.482;2022-10-30T17:46:19;21.10;;;3.80;;
32505;SDS011;18955;51.224;8.482;2022-10-30T17:48:46;18.67;;;3.50;;
32505;SDS011;18955;51.224;8.482;2022-10-30T17:51:12;22.52;;;3.90;;
32505;SDS011;18955;51.224;8.482;2022-10-30T17:53:39;14.35;;;3.33;;
32505;SDS011;18955;51.224;8.482;2022-10-30T17:58:38;12.82;;;2.72;;
32505;SDS011;18955;51.224;8.482;2022-10-30T18:01:04;11.23;;;2.60;;
32505;SDS011;18955;51.224;8.482;2022-10-30T18:03:31;15.00;;;2.70;;
32505;SDS011;18955;51.224;8.482;2022-10-30T18:05:57;13.50;;;3.00;;
32505;SDS011;18955;51.224;8.482;2022-10-30T18:08:26;10.88;;;3.22;;
32505;SDS011;18955;51.224;8.482;2022-10-30T18:10:52;16.50;;;3.53;;
32505;SDS011;18955;51.224;8.482;2022-10-30T18:13:18;20.40;;;3.17;;
32505;SDS011;18955;51.224;8.482;2022-10-30T18:15:47;14.65;;;3.05;;
32505;SDS011;18955;51.224;8.482;2022-10-30T18:18:19;15.65;;;2.97;;
32505;SDS011;18955;51.224;8.482;2022-10-30T18:20:45;14.65;;;3.13;;
32505;SDS011;18955;51.224;8.482;2022-10-30T18:23:18;15.13;;;3.38;;
32505;SDS011;18955;51.224;8.482;2022-10-30T18:25:47;19.48;;;3.47;;
32505;SDS011;18955;51.224;8.482;2022-10-30T18:28:14;11.45;;;2.83;;
32505;SDS011;18955;51.224;8.482;2022-10-30T18:30:41;12.88;;;2.92;;
32505;SDS011;18955;51.224;8.482;2022-10-30T18:33:10;10.48;;;2.80;;
32505;SDS011;18955;51.224;8.482;2022-10-30T18:35:37;10.82;;;2.05;;
32505;SDS011;18955;51.224;8.482;2022-10-30T18:38:04;18.13;;;3.15;;
32505;SDS011;18955;51.224;8.482;2022-10-30T18:40:31;13.25;;;3.08;;
32505;SDS011;18955;51.224;8.482;2022-10-30T18:42:57;15.52;;;2.83;;